Time;durP1;ratioP1;P1;durP2;ratioP2;P2;SDS_P1;SDS_P2;PMS_P1;PMS_P2;Temp;Humidity;BMP_temperature;BMP_pressure;BME280_temperature;BME280_humidity;BME280_pressure;Samples;Min_cycle;Max_cycle;Signal;HPM_P1;HPM_P2
2021/11/20 00:00:33;;;;;;;26.65;16.92;;;;;;;;;;5007529;28;20194;-71
2021/11/20 00:02:59;;;;;;;27.67;17.15;;;;;;;;;;5020450;28;20240;-71
2021/11/20 00:05:28;;;;;;;27.02;17.13;;;;;;;;;;5028328;28;20236;-71
2021/11/20 00:07:54;;;;;;;28.33;17.17;;;;;;;;;;5015632;28;20350;-71
2021/11/20 00:10:22;;;;;;;31.00;17.75;;;;;;;;;;5025882;28;20614;-72
2021/11/20 00:12:48;;;;;;;28.65;16.92;;;;;;;;;;5015812;28;20209;-72
2021/11/20 00:15:18;;;;;;;29.70;17.38;;;;;;;;;;5020638;28;20677;-72
2021/11/20 00:17:43;;;;;;;29.95;17.17;;;;;;;;;;5017582;28;20606;-72
2021/11/20 00:20:13;;;;;;;32.40;17.40;;;;;;;;;;5021662;28;20241;-71
2021/11/20 00:22:41;;;;;;;32.92;17.77;;;;;;;;;;5016744;28;20194;-70
2021/11/20 00:25:21;;;;;;;32.50;18.70;;;;;;;;;;5024425;28;20970;-71
2021/11/20 00:27:48;;;;;;;29.83;18.40;;;;;;;;;;5013484;28;20221;-71
2021/11/20 00:30:21;;;;;;;28.90;17.77;;;;;;;;;;5024101;28;20198;-71
2021/11/20 00:32:51;;;;;;;30.27;18.73;;;;;;;;;;5011352;28;20190;-71
2021/11/20 00:35:20;;;;;;;34.03;17.70;;;;;;;;;;5025512;28;20182;-71
2021/11/20 00:37:46;;;;;;;29.20;18.45;;;;;;;;;;5007729;28;20209;-71
2021/11/20 00:40:45;;;;;;;28.25;17.75;;;;;;;;;;5019241;28;20194;-71
2021/11/20 00:43:12;;;;;;;29.50;18.23;;;;;;;;;;5016257;28;20329;-71
2021/11/20 00:45:37;;;;;;;32.08;18.33;;;;;;;;;;5025189;28;20186;-71
2021/11/20 00:48:05;;;;;;;30.83;18.20;;;;;;;;;;5019634;28;20189;-71
2021/11/20 00:50:31;;;;;;;29.55;18.48;;;;;;;;;;5025162;28;20174;-72
2021/11/20 00:52:56;;;;;;;32.92;18.23;;;;;;;;;;5017266;28;20663;-71
2021/11/20 00:55:25;;;;;;;31.23;18.70;;;;;;;;;;5018911;28;20198;-71
2021/11/20 00:57:52;;;;;;;32.58;19.35;;;;;;;;;;5026169;28;20593;-71
2021/11/20 01:00:21;;;;;;;34.30;20.25;;;;;;;;;;5017156;28;20190;-71
2021/11/20 01:02:46;;;;;;;34.58;19.92;;;;;;;;;;5024655;28;20190;-71
2021/11/20 01:05:14;;;;;;;27.85;19.02;;;;;;;;;;5018800;28;20240;-71
2021/11/20 01:07:39;;;;;;;32.72;20.38;;;;;;;;;;5024152;28;20265;-71
2021/11/20 01:10:09;;;;;;;34.83;20.45;;;;;;;;;;5016591;28;20517;-71
2021/11/20 01:12:34;;;;;;;33.08;19.50;;;;;;;;;;5022794;28;20170;-71
2021/11/20 01:15:00;;;;;;;33.03;18.98;;;;;;;;;;5010352;28;20688;-71
2021/11/20 01:17:27;;;;;;;30.88;18.88;;;;;;;;;;5025209;28;20190;-71
2021/11/20 01:19:53;;;;;;;31.20;19.38;;;;;;;;;;5016255;28;20178;-71
2021/11/20 01:22:22;;;;;;;33.28;20.00;;;;;;;;;;5023382;28;20186;-71
2021/11/20 01:24:49;;;;;;;27.02;18.73;;;;;;;;;;5008526;28;20776;-71
2021/11/20 01:27:16;;;;;;;28.38;19.33;;;;;;;;;;5023893;28;20707;-71
2021/11/20 01:29:41;;;;;;;32.97;19.58;;;;;;;;;;5013634;28;20216;-71
2021/11/20 01:32:07;;;;;;;32.78;19.35;;;;;;;;;;5022064;28;20190;-71
2021/11/20 01:34:33;;;;;;;31.17;18.77;;;;;;;;;;5025212;28;20340;-71
2021/11/20 01:37:00;;;;;;;27.02;19.73;;;;;;;;;;5018451;28;20629;-71
2021/11/20 01:39:32;;;;;;;32.90;20.17;;;;;;;;;;5024640;28;20186;-71
2021/11/20 01:42:08;;;;;;;33.40;19.10;;;;;;;;;;5010494;28;20183;-71
2021/11/20 01:44:57;;;;;;;30.42;18.23;;;;;;;;;;5026899;28;20175;-71
2021/11/20 01:47:27;;;;;;;29.60;18.75;;;;;;;;;;5012317;28;20186;-71
2021/11/20 01:50:03;;;;;;;27.80;18.92;;;;;;;;;;5023058;28;20186;-71
2021/11/20 01:52:35;;;;;;;26.80;18.17;;;;;;;;;;5016771;28;20185;-72
2021/11/20 01:55:10;;;;;;;26.15;18.88;;;;;;;;;;5022928;28;20660;-72
2021/11/20 01:58:02;;;;;;;29.73;18.88;;;;;;;;;;5014306;28;20263;-72
2021/11/20 02:00:46;;;;;;;28.40;18.20;;;;;;;;;;5015593;28;20213;-71
2021/11/20 02:03:32;;;;;;;26.52;18.52;;;;;;;;;;5011558;28;20182;-71
2021/11/20 02:06:08;;;;;;;33.10;19.25;;;;;;;;;;5015794;28;20340;-71
2021/11/20 02:08:42;;;;;;;30.17;18.98;;;;;;;;;;5008084;28;20190;-71
2021/11/20 02:11:36;;;;;;;31.05;19.63;;;;;;;;;;5028371;28;20613;-71
2021/11/20 02:14:03;;;;;;;28.05;18.98;;;;;;;;;;5015105;28;20208;-71
2021/11/20 02:16:36;;;;;;;28.35;19.02;;;;;;;;;;5020579;28;20261;-71
2021/11/20 02:19:05;;;;;;;32.22;20.38;;;;;;;;;;5017417;28;20205;-71
2021/11/20 02:21:49;;;;;;;29.90;19.50;;;;;;;;;;5015638;28;20266;-71
2021/11/20 02:24:15;;;;;;;30.05;19.13;;;;;;;;;;5012403;28;20537;-71
2021/11/20 02:26:40;;;;;;;28.88;20.27;;;;;;;;;;5019517;28;20190;-72
2021/11/20 02:29:09;;;;;;;28.65;19.27;;;;;;;;;;5014104;28;20190;-72
2021/11/20 02:31:36;;;;;;;26.75;20.00;;;;;;;;;;5020819;28;20280;-72
2021/11/20 02:34:01;;;;;;;30.15;19.15;;;;;;;;;;5006940;28;20222;-72
2021/11/20 02:36:27;;;;;;;28.20;20.48;;;;;;;;;;5022879;28;20194;-72
2021/11/20 02:39:04;;;;;;;34.05;21.25;;;;;;;;;;5015869;28;20240;-72
2021/11/20 02:41:32;;;;;;;26.65;19.50;;;;;;;;;;5019817;28;20528;-72
2021/11/20 02:44:03;;;;;;;30.63;19.98;;;;;;;;;;5013341;28;20563;-72
2021/11/20 02:46:33;;;;;;;29.60;20.48;;;;;;;;;;5021418;28;20193;-72
2021/11/20 02:48:59;;;;;;;30.98;20.50;;;;;;;;;;5015655;28;20270;-72
2021/11/20 02:51:31;;;;;;;30.67;20.27;;;;;;;;;;5023206;28;20628;-71
2021/11/20 02:54:03;;;;;;;30.63;20.45;;;;;;;;;;5016078;28;20217;-71
2021/11/20 02:56:34;;;;;;;33.15;20.92;;;;;;;;;;5023475;28;20218;-71
2021/11/20 02:58:59;;;;;;;31.02;20.65;;;;;;;;;;5021235;28;20240;-71
2021/11/20 03:01:26;;;;;;;26.90;20.15;;;;;;;;;;5012798;28;20190;-71
2021/11/20 03:03:52;;;;;;;28.75;20.27;;;;;;;;;;5015434;28;20272;-71
2021/11/20 03:06:17;;;;;;;25.92;19.15;;;;;;;;;;5013663;28;20273;-72
2021/11/20 03:08:43;;;;;;;26.60;20.02;;;;;;;;;;5023945;28;20190;-72
2021/11/20 03:11:13;;;;;;;28.80;19.60;;;;;;;;;;5013481;28;20642;-71
2021/11/20 03:13:39;;;;;;;32.17;21.27;;;;;;;;;;5018949;28;20265;-72
2021/11/20 03:16:04;;;;;;;26.95;19.83;;;;;;;;;;5012436;28;20202;-71
2021/11/20 03:18:30;;;;;;;31.50;20.38;;;;;;;;;;5021611;28;20201;-71
2021/11/20 03:20:55;;;;;;;28.67;18.90;;;;;;;;;;5012464;28;20649;-71
2021/11/20 03:23:34;;;;;;;28.92;19.65;;;;;;;;;;5019684;28;20541;-71
2021/11/20 03:25:59;;;;;;;28.30;19.25;;;;;;;;;;5016157;28;20263;-71
2021/11/20 03:28:25;;;;;;;28.73;20.08;;;;;;;;;;5022931;28;20186;-71
2021/11/20 03:30:50;;;;;;;30.88;19.85;;;;;;;;;;5015551;28;20194;-71
2021/11/20 03:33:17;;;;;;;31.88;19.13;;;;;;;;;;5019037;28;20209;-71
2021/11/20 03:35:44;;;;;;;27.30;19.30;;;;;;;;;;5022781;28;20185;-71
2021/11/20 03:38:10;;;;;;;31.30;19.52;;;;;;;;;;5018616;28;20182;-71
2021/11/20 03:40:35;;;;;;;26.23;18.23;;;;;;;;;;5026647;28;20278;-71
2021/11/20 03:43:01;;;;;;;25.50;17.90;;;;;;;;;;5014038;28;20285;-71
2021/11/20 03:45:29;;;;;;;27.33;18.90;;;;;;;;;;5025741;28;20202;-71
2021/11/20 03:47:56;;;;;;;24.83;18.02;;;;;;;;;;5016515;28;20194;-71
2021/11/20 03:50:21;;;;;;;26.58;18.80;;;;;;;;;;5023852;28;20257;-71
2021/11/20 03:52:47;;;;;;;27.02;19.92;;;;;;;;;;5019006;28;20182;-71
2021/11/20 03:55:16;;;;;;;25.60;18.70;;;;;;;;;;5021426;28;20216;-71
2021/11/20 03:57:42;;;;;;;25.52;18.60;;;;;;;;;;5016706;28;20316;-71
2021/11/20 04:00:12;;;;;;;26.40;18.77;;;;;;;;;;5024346;28;20651;-71
2021/11/20 04:02:37;;;;;;;25.48;18.13;;;;;;;;;;5013203;28;20202;-71
2021/11/20 04:05:04;;;;;;;28.00;18.20;;;;;;;;;;5029529;28;20579;-71
2021/11/20 04:07:30;;;;;;;26.98;18.60;;;;;;;;;;5026259;28;20601;-71
2021/11/20 04:09:55;;;;;;;31.42;19.23;;;;;;;;;;5018331;28;20186;-71
2021/11/20 04:12:21;;;;;;;26.80;18.05;;;;;;;;;;5024541;28;20192;-72
2021/11/20 04:14:46;;;;;;;27.75;18.08;;;;;;;;;;5015284;28;20213;-71
2021/11/20 04:17:11;;;;;;;32.95;18.98;;;;;;;;;;5024885;28;20201;-71
2021/11/20 04:19:37;;;;;;;29.15;18.98;;;;;;;;;;5016390;28;20676;-71
2021/11/20 04:22:02;;;;;;;26.83;18.33;;;;;;;;;;5027847;28;20659;-71
2021/11/20 04:24:28;;;;;;;28.67;18.05;;;;;;;;;;5016493;28;20188;-71
2021/11/20 04:26:53;;;;;;;27.02;18.08;;;;;;;;;;5022350;28;20213;-71
2021/11/20 04:29:19;;;;;;;25.65;16.90;;;;;;;;;;5016029;28;20186;-71
2021/11/20 04:31:45;;;;;;;27.70;18.02;;;;;;;;;;5025105;28;20233;-71
2021/11/20 04:34:10;;;;;;;27.13;18.33;;;;;;;;;;5014556;28;20209;-71
2021/11/20 04:36:36;;;;;;;28.52;19.65;;;;;;;;;;5017263;28;20240;-71
2021/11/20 04:39:04;;;;;;;27.98;18.58;;;;;;;;;;5026350;28;20280;-71
2021/11/20 04:41:30;;;;;;;26.38;18.73;;;;;;;;;;5017412;28;20194;-71
2021/11/20 04:43:56;;;;;;;26.63;18.92;;;;;;;;;;5025561;28;20182;-71
2021/11/20 04:46:24;;;;;;;29.55;19.05;;;;;;;;;;5011545;28;20252;-71
2021/11/20 04:48:50;;;;;;;26.73;18.70;;;;;;;;;;5025485;28;20214;-71
2021/11/20 04:51:16;;;;;;;29.85;18.55;;;;;;;;;;5009318;28;20557;-71
2021/11/20 04:53:44;;;;;;;32.50;19.65;;;;;;;;;;5021951;28;20203;-70
2021/11/20 04:56:11;;;;;;;26.52;18.98;;;;;;;;;;5013730;28;20236;-71
2021/11/20 04:58:37;;;;;;;29.67;19.15;;;;;;;;;;5025601;28;20244;-71
2021/11/20 05:01:04;;;;;;;30.65;19.23;;;;;;;;;;5013421;28;20641;-71
2021/11/20 05:03:30;;;;;;;26.70;18.63;;;;;;;;;;5026586;28;20182;-72
2021/11/20 05:05:56;;;;;;;27.52;18.42;;;;;;;;;;5010759;28;20586;-71
2021/11/20 05:08:23;;;;;;;32.90;20.35;;;;;;;;;;5018516;28;20248;-71
2021/11/20 05:10:49;;;;;;;27.90;18.83;;;;;;;;;;5023677;28;20199;-71
2021/11/20 05:13:20;;;;;;;25.63;18.27;;;;;;;;;;5012917;28;20221;-71
2021/11/20 05:15:48;;;;;;;31.33;19.88;;;;;;;;;;5017935;28;20194;-71
2021/11/20 05:18:14;;;;;;;26.35;18.35;;;;;;;;;;5015296;28;20479;-71
2021/11/20 05:20:39;;;;;;;28.70;19.05;;;;;;;;;;5024512;28;20192;-71
2021/11/20 05:23:06;;;;;;;27.00;18.02;;;;;;;;;;5013242;28;20197;-72
2021/11/20 05:25:32;;;;;;;29.70;18.60;;;;;;;;;;5022557;28;20665;-71
2021/11/20 05:27:58;;;;;;;31.20;19.77;;;;;;;;;;5014756;28;20268;-71
2021/11/20 05:30:30;;;;;;;31.25;19.35;;;;;;;;;;5019594;28;20656;-71
2021/11/20 05:32:57;;;;;;;29.48;19.23;;;;;;;;;;5014256;28;20232;-71
2021/11/20 05:35:25;;;;;;;26.48;18.58;;;;;;;;;;5020201;28;20309;-71
2021/11/20 05:37:51;;;;;;;28.73;19.25;;;;;;;;;;5016132;28;20524;-72
2021/11/20 05:40:16;;;;;;;30.13;19.70;;;;;;;;;;5022425;28;20312;-71
2021/11/20 05:42:45;;;;;;;34.95;19.35;;;;;;;;;;5015911;28;20277;-71
2021/11/20 05:45:10;;;;;;;28.05;19.98;;;;;;;;;;5022385;28;20193;-71
2021/11/20 05:47:36;;;;;;;30.98;19.17;;;;;;;;;;5026191;28;20186;-71
2021/11/20 05:50:05;;;;;;;30.90;19.92;;;;;;;;;;5015543;28;20200;-71
2021/11/20 05:52:30;;;;;;;29.50;20.20;;;;;;;;;;5023689;28;20201;-71
2021/11/20 05:54:56;;;;;;;30.85;20.40;;;;;;;;;;5010536;28;20674;-72
2021/11/20 05:57:22;;;;;;;30.55;20.23;;;;;;;;;;5017218;28;20186;-71
2021/11/20 05:59:47;;;;;;;31.00;20.33;;;;;;;;;;5012560;28;20206;-71
2021/11/20 06:02:13;;;;;;;30.90;20.80;;;;;;;;;;5021583;28;20190;-71
2021/11/20 06:04:38;;;;;;;32.00;20.42;;;;;;;;;;5012636;28;20597;-70
2021/11/20 06:07:04;;;;;;;36.60;20.95;;;;;;;;;;5021896;28;20182;-71
2021/11/20 06:09:29;;;;;;;30.85;20.08;;;;;;;;;;5008292;28;20380;-70
2021/11/20 06:11:55;;;;;;;31.75;20.83;;;;;;;;;;5020725;28;20194;-71
2021/11/20 06:14:20;;;;;;;30.13;21.52;;;;;;;;;;5013022;28;20190;-70
2021/11/20 06:16:46;;;;;;;31.85;20.92;;;;;;;;;;5017135;28;20649;-70
2021/11/20 06:19:12;;;;;;;32.97;21.85;;;;;;;;;;5015428;28;20280;-70
2021/11/20 06:21:38;;;;;;;32.35;20.90;;;;;;;;;;5015510;28;20182;-70
2021/11/20 06:24:04;;;;;;;29.75;21.02;;;;;;;;;;5013261;28;20229;-70
2021/11/20 06:26:30;;;;;;;28.90;20.77;;;;;;;;;;5013713;28;20719;-71
2021/11/20 06:28:55;;;;;;;29.05;20.38;;;;;;;;;;5017985;28;20590;-70
2021/11/20 06:31:22;;;;;;;31.98;21.33;;;;;;;;;;5010737;28;20289;-71
2021/11/20 06:33:48;;;;;;;31.80;20.33;;;;;;;;;;5017473;28;20210;-70
2021/11/20 06:36:13;;;;;;;30.23;19.80;;;;;;;;;;5010846;28;20272;-70
2021/11/20 06:38:39;;;;;;;31.05;20.63;;;;;;;;;;5013533;28;20615;-70
2021/11/20 06:41:07;;;;;;;31.10;20.75;;;;;;;;;;5008898;28;20186;-71
2021/11/20 06:43:32;;;;;;;30.20;20.00;;;;;;;;;;5022328;28;20476;-70
2021/11/20 06:46:01;;;;;;;34.03;19.73;;;;;;;;;;5015845;28;20235;-70
2021/11/20 06:48:27;;;;;;;30.88;20.75;;;;;;;;;;5021489;28;20466;-71
2021/11/20 06:50:53;;;;;;;33.50;19.70;;;;;;;;;;5017215;28;20182;-71
2021/11/20 06:53:19;;;;;;;27.52;18.98;;;;;;;;;;5011703;28;20193;-71
2021/11/20 06:55:46;;;;;;;28.83;18.65;;;;;;;;;;5018518;28;20616;-71
2021/11/20 07:00:44;;;;;;;29.90;20.95;;;;;;;;;;5017586;28;20336;-70
2021/11/20 07:03:15;;;;;;;30.10;20.17;;;;;;;;;;5015318;28;20197;-70
2021/11/20 07:05:44;;;;;;;29.92;21.15;;;;;;;;;;5019921;28;20253;-71
2021/11/20 07:08:10;;;;;;;32.28;20.50;;;;;;;;;;5007342;28;20237;-71
2021/11/20 07:10:53;;;;;;;29.40;19.78;;;;;;;;;;4889628;28;10001104;-71
2021/11/20 07:13:20;;;;;;;32.53;20.27;;;;;;;;;;5012322;28;20410;-71
2021/11/20 07:15:46;;;;;;;29.77;19.75;;;;;;;;;;5018173;28;20240;-71
2021/11/20 07:18:11;;;;;;;30.75;20.40;;;;;;;;;;5017648;28;20193;-70
2021/11/20 07:20:39;;;;;;;30.65;20.88;;;;;;;;;;5020014;28;20188;-71
2021/11/20 07:23:04;;;;;;;33.83;21.35;;;;;;;;;;5012703;28;22441;-71
2021/11/20 07:25:31;;;;;;;31.58;20.98;;;;;;;;;;5025172;28;20212;-71
2021/11/20 07:27:57;;;;;;;31.08;20.70;;;;;;;;;;5019092;28;20573;-71
2021/11/20 07:30:26;;;;;;;30.77;21.02;;;;;;;;;;5018551;28;20745;-71
2021/11/20 07:32:52;;;;;;;29.02;20.08;;;;;;;;;;5020951;28;20198;-71
2021/11/20 07:35:29;;;;;;;31.10;20.08;;;;;;;;;;5013440;28;20214;-71
2021/11/20 07:37:55;;;;;;;32.03;21.10;;;;;;;;;;5025589;28;20196;-72
2021/11/20 07:40:22;;;;;;;32.00;21.35;;;;;;;;;;5015070;28;20186;-72
2021/11/20 07:42:47;;;;;;;34.20;21.27;;;;;;;;;;5024915;28;20213;-72
2021/11/20 07:45:13;;;;;;;32.70;21.42;;;;;;;;;;5012281;28;20709;-72
2021/11/20 07:47:38;;;;;;;32.05;21.60;;;;;;;;;;5024647;28;20194;-71
2021/11/20 07:50:05;;;;;;;31.88;21.35;;;;;;;;;;5004026;28;20249;-71
2021/11/20 07:52:30;;;;;;;33.53;21.60;;;;;;;;;;5014756;28;20277;-71
2021/11/20 07:54:56;;;;;;;33.58;21.13;;;;;;;;;;5009560;28;20301;-71
2021/11/20 07:57:21;;;;;;;33.10;20.73;;;;;;;;;;5014647;28;20232;-70
2021/11/20 07:59:47;;;;;;;32.85;20.55;;;;;;;;;;4661029;28;9999965;-71
2021/11/20 08:02:12;;;;;;;33.05;21.27;;;;;;;;;;5016209;28;20638;-71
2021/11/20 08:04:38;;;;;;;30.90;21.02;;;;;;;;;;5020096;28;20245;-72
2021/11/20 08:07:07;;;;;;;33.55;21.13;;;;;;;;;;5003555;28;20619;-71
2021/11/20 08:09:34;;;;;;;36.33;22.20;;;;;;;;;;5020308;28;20194;-71
2021/11/20 08:12:02;;;;;;;34.13;20.88;;;;;;;;;;5007407;28;20281;-70
2021/11/20 08:14:28;;;;;;;34.97;22.15;;;;;;;;;;5015815;28;20320;-70
2021/11/20 08:16:54;;;;;;;35.97;20.92;;;;;;;;;;5015473;28;20183;-71
2021/11/20 08:19:20;;;;;;;34.58;20.85;;;;;;;;;;5019634;28;20200;-71
2021/11/20 08:21:45;;;;;;;37.25;21.63;;;;;;;;;;5008398;28;20621;-70
2021/11/20 08:24:11;;;;;;;34.83;21.63;;;;;;;;;;5015378;28;20238;-70
2021/11/20 08:26:39;;;;;;;30.75;20.45;;;;;;;;;;5010033;28;20216;-70
2021/11/20 08:29:10;;;;;;;33.80;21.52;;;;;;;;;;5018415;28;20190;-70
2021/11/20 08:31:40;;;;;;;34.20;21.95;;;;;;;;;;5011125;28;20182;-71
2021/11/20 08:34:06;;;;;;;36.50;21.65;;;;;;;;;;5020466;28;20269;-70
2021/11/20 08:36:31;;;;;;;36.72;21.33;;;;;;;;;;5008815;28;20657;-70
2021/11/20 08:38:56;;;;;;;37.53;22.23;;;;;;;;;;5019411;28;20182;-70
2021/11/20 08:41:22;;;;;;;36.20;22.23;;;;;;;;;;5020298;28;20192;-71
2021/11/20 08:43:47;;;;;;;36.22;22.40;;;;;;;;;;5010628;28;20182;-72
2021/11/20 08:46:12;;;;;;;34.13;22.20;;;;;;;;;;5019827;28;20711;-73
2021/11/20 08:48:39;;;;;;;35.80;21.33;;;;;;;;;;4663130;28;9999767;-73
2021/11/20 08:51:09;;;;;;;33.58;21.35;;;;;;;;;;5015525;28;20223;-72
2021/11/20 08:53:35;;;;;;;31.85;21.65;;;;;;;;;;5012293;28;20267;-71
2021/11/20 08:56:00;;;;;;;33.58;21.70;;;;;;;;;;5018993;28;20206;-72
2021/11/20 08:58:26;;;;;;;34.45;21.73;;;;;;;;;;5009570;28;20186;-72
2021/11/20 09:00:59;;;;;;;31.05;22.42;;;;;;;;;;5017840;28;20225;-71
2021/11/20 09:06:56;;;;;;;33.05;24.25;;;;;;;;;;5042940;28;20654;-71
2021/11/20 09:09:38;;;;;;;33.50;23.85;;;;;;;;;;5020206;28;20319;-72
2021/11/20 09:12:21;;;;;;;33.35;24.50;;;;;;;;;;5019858;28;20193;-71
2021/11/20 09:14:56;;;;;;;34.35;24.30;;;;;;;;;;5022833;28;20216;-71
2021/11/20 09:17:23;;;;;;;32.20;24.02;;;;;;;;;;5019381;28;20584;-71
2021/11/20 09:19:49;;;;;;;38.17;24.40;;;;;;;;;;5012195;28;20185;-71
2021/11/20 09:22:16;;;;;;;35.20;24.60;;;;;;;;;;5022994;28;20553;-71
2021/11/20 09:24:44;;;;;;;32.00;22.98;;;;;;;;;;5020481;28;20813;-72
2021/11/20 09:27:11;;;;;;;35.75;23.38;;;;;;;;;;5020643;28;20259;-71
2021/11/20 09:29:37;;;;;;;38.20;24.70;;;;;;;;;;5020897;28;20194;-72
2021/11/20 09:32:04;;;;;;;35.88;24.00;;;;;;;;;;5033483;28;20205;-72
2021/11/20 09:34:30;;;;;;;36.92;24.48;;;;;;;;;;5024060;28;20587;-72
2021/11/20 09:36:57;;;;;;;33.13;23.13;;;;;;;;;;5020351;28;20196;-71
2021/11/20 09:39:28;;;;;;;35.33;23.80;;;;;;;;;;5016240;28;20182;-71
2021/11/20 09:42:26;;;;;;;38.25;23.52;;;;;;;;;;5015057;28;20274;-72
2021/11/20 09:44:56;;;;;;;36.47;23.60;;;;;;;;;;5025605;28;20252;-72
2021/11/20 09:47:30;;;;;;;37.78;24.33;;;;;;;;;;5018354;28;20182;-72
2021/11/20 09:50:30;;;;;;;38.17;24.63;;;;;;;;;;5030932;28;20197;-72
2021/11/20 09:52:56;;;;;;;39.42;25.02;;;;;;;;;;5010954;28;20641;-72
2021/11/20 09:55:26;;;;;;;42.00;26.10;;;;;;;;;;5025147;28;20288;-72
2021/11/20 09:58:05;;;;;;;40.17;25.88;;;;;;;;;;5016482;28;20284;-72
2021/11/20 10:00:46;;;;;;;39.03;24.67;;;;;;;;;;5018526;28;20189;-71
2021/11/20 10:03:26;;;;;;;38.45;25.95;;;;;;;;;;5027628;28;20632;-72
2021/11/20 10:06:00;;;;;;;37.92;25.27;;;;;;;;;;5024933;28;20225;-70
2021/11/20 10:08:27;;;;;;;40.30;25.13;;;;;;;;;;5022516;28;20189;-71
2021/11/20 10:11:28;;;;;;;36.25;24.33;;;;;;;;;;5022394;28;20186;-70
2021/11/20 10:14:13;;;;;;;42.08;26.77;;;;;;;;;;5017520;28;20217;-71
2021/11/20 10:16:51;;;;;;;40.83;25.83;;;;;;;;;;5000941;28;20182;-72
2021/11/20 10:19:21;;;;;;;43.20;26.92;;;;;;;;;;5008622;28;20195;-71
2021/11/20 10:22:05;;;;;;;42.28;26.75;;;;;;;;;;5011169;28;20183;-70
2021/11/20 10:24:49;;;;;;;42.90;28.65;;;;;;;;;;5009672;28;20625;-70
2021/11/20 10:27:29;;;;;;;45.47;28.45;;;;;;;;;;4994062;28;20710;-71
2021/11/20 10:30:16;;;;;;;43.50;27.13;;;;;;;;;;5008288;28;20182;-71
2021/11/20 10:32:56;;;;;;;43.75;27.38;;;;;;;;;;5000938;28;20557;-71
2021/11/20 10:35:25;;;;;;;43.88;28.20;;;;;;;;;;5007316;28;20202;-70
2021/11/20 10:38:05;;;;;;;42.85;27.75;;;;;;;;;;4997338;28;20202;-71
2021/11/20 10:40:52;;;;;;;44.40;27.85;;;;;;;;;;5007969;28;20305;-70
2021/11/20 10:43:34;;;;;;;42.30;26.95;;;;;;;;;;5001910;28;20191;-71
2021/11/20 10:46:28;;;;;;;43.70;27.83;;;;;;;;;;5007921;28;20560;-70
2021/11/20 10:49:02;;;;;;;40.08;26.45;;;;;;;;;;5000652;28;20282;-70
2021/11/20 10:51:37;;;;;;;44.38;26.48;;;;;;;;;;5012416;28;20272;-70
2021/11/20 10:54:35;;;;;;;43.38;26.92;;;;;;;;;;4999574;28;20190;-70
2021/11/20 10:57:16;;;;;;;46.42;26.50;;;;;;;;;;5008078;28;20242;-70
2021/11/20 10:59:53;;;;;;;49.40;29.60;;;;;;;;;;4994225;28;20556;-71
2021/11/20 11:02:56;;;;;;;47.75;29.30;;;;;;;;;;5005721;28;20186;-70
2021/11/20 11:05:24;;;;;;;48.58;29.95;;;;;;;;;;5000054;28;20265;-71
2021/11/20 11:08:21;;;;;;;45.78;28.52;;;;;;;;;;5011868;28;20187;-71
2021/11/20 11:10:55;;;;;;;45.30;28.70;;;;;;;;;;4991584;28;20242;-71
2021/11/20 11:14:02;;;;;;;58.47;35.20;;;;;;;;;;5004899;28;20324;-71
2021/11/20 11:16:57;;;;;;;56.35;34.55;;;;;;;;;;4952743;28;20617;-71
2021/11/20 11:19:47;;;;;;;56.28;35.08;;;;;;;;;;5002545;28;20303;-71
2021/11/20 11:22:32;;;;;;;51.67;32.13;;;;;;;;;;5002724;28;20561;-71
2021/11/20 11:24:57;;;;;;;52.33;32.97;;;;;;;;;;5006118;28;20238;-71
2021/11/20 11:27:35;;;;;;;48.80;31.38;;;;;;;;;;5002375;28;20218;-71
2021/11/20 11:30:12;;;;;;;51.15;32.17;;;;;;;;;;5015045;28;20210;-71
2021/11/20 11:32:44;;;;;;;50.78;32.58;;;;;;;;;;4999999;28;20196;-71
2021/11/20 11:35:33;;;;;;;54.42;32.80;;;;;;;;;;5014933;28;20552;-71
2021/11/20 11:38:11;;;;;;;54.75;32.63;;;;;;;;;;4996794;28;20222;-71
2021/11/20 11:41:00;;;;;;;53.22;32.08;;;;;;;;;;4999061;28;21025;-71
2021/11/20 11:43:47;;;;;;;57.72;33.95;;;;;;;;;;5005816;28;20210;-71
2021/11/20 11:46:25;;;;;;;59.65;34.58;;;;;;;;;;4999646;28;20285;-71
2021/11/20 11:49:04;;;;;;;58.83;33.50;;;;;;;;;;5005134;28;20541;-71
2021/11/20 11:51:53;;;;;;;58.80;34.08;;;;;;;;;;5001629;28;20248;-71
2021/11/20 11:54:41;;;;;;;59.63;33.53;;;;;;;;;;5006938;28;20550;-71
2021/11/20 11:57:12;;;;;;;57.95;33.92;;;;;;;;;;4996018;28;20665;-71
2021/11/20 12:00:00;;;;;;;61.13;35.75;;;;;;;;;;5002666;28;20186;-71
2021/11/20 12:02:37;;;;;;;58.75;35.05;;;;;;;;;;4994400;28;20532;-71
2021/11/20 12:05:32;;;;;;;61.53;34.22;;;;;;;;;;5011953;28;20241;-71
2021/11/20 12:08:43;;;;;;;54.72;31.58;;;;;;;;;;4997447;28;20201;-71
2021/11/20 12:11:11;;;;;;;53.65;32.40;;;;;;;;;;5005884;28;20206;-70
2021/11/20 12:13:51;;;;;;;58.78;34.90;;;;;;;;;;5008219;28;20699;-70
2021/11/20 12:16:23;;;;;;;53.35;32.63;;;;;;;;;;5007919;28;20493;-70
2021/11/20 12:18:55;;;;;;;53.88;32.72;;;;;;;;;;5011666;28;20186;-70
2021/11/20 12:21:30;;;;;;;51.63;31.85;;;;;;;;;;5006272;28;20190;-70
2021/11/20 12:24:06;;;;;;;52.92;32.20;;;;;;;;;;4998008;28;20189;-70
2021/11/20 12:26:40;;;;;;;54.22;31.92;;;;;;;;;;5005286;28;20237;-70
2021/11/20 12:29:25;;;;;;;52.10;32.40;;;;;;;;;;4998620;28;20192;-71
2021/11/20 12:32:19;;;;;;;54.25;32.05;;;;;;;;;;5022040;28;20194;-70
2021/11/20 12:35:11;;;;;;;53.47;31.67;;;;;;;;;;4996565;28;20183;-70
2021/11/20 12:37:54;;;;;;;52.67;30.92;;;;;;;;;;5013606;28;20178;-71
2021/11/20 12:40:51;;;;;;;55.55;32.80;;;;;;;;;;4999028;28;20669;-70
2021/11/20 12:43:35;;;;;;;56.80;32.47;;;;;;;;;;5018860;28;20195;-70
2021/11/20 12:46:34;;;;;;;55.53;32.20;;;;;;;;;;4998548;28;20226;-70
2021/11/20 12:49:03;;;;;;;56.58;32.97;;;;;;;;;;5010058;28;20191;-70
2021/11/20 12:51:49;;;;;;;59.50;34.67;;;;;;;;;;4993277;28;20202;-71
2021/11/20 12:54:38;;;;;;;61.25;36.10;;;;;;;;;;4999418;28;20635;-71
2021/11/20 12:57:27;;;;;;;63.83;35.70;;;;;;;;;;5016152;28;20442;-71
2021/11/20 13:00:11;;;;;;;69.85;36.85;;;;;;;;;;4996708;28;20198;-71
2021/11/20 13:02:49;;;;;;;65.70;36.47;;;;;;;;;;5006707;28;20629;-71
2021/11/20 13:05:37;;;;;;;72.95;37.63;;;;;;;;;;4988486;28;20301;-71
2021/11/20 13:08:10;;;;;;;71.70;37.58;;;;;;;;;;5003962;28;20273;-71
2021/11/20 13:11:09;;;;;;;68.63;36.67;;;;;;;;;;4991494;28;20650;-72
2021/11/20 13:13:49;;;;;;;70.13;37.50;;;;;;;;;;5004721;28;20719;-71
2021/11/20 13:16:20;;;;;;;71.75;37.40;;;;;;;;;;4304003;28;10000862;-71
2021/11/20 13:19:18;;;;;;;74.28;38.10;;;;;;;;;;5002703;28;20271;-71
2021/11/20 13:21:52;;;;;;;73.53;38.40;;;;;;;;;;4981900;28;20575;-71
2021/11/20 13:24:41;;;;;;;74.15;37.75;;;;;;;;;;5000669;28;20192;-70
2021/11/20 13:27:06;;;;;;;75.97;37.55;;;;;;;;;;4986375;28;20298;-71
2021/11/20 13:29:37;;;;;;;76.20;37.80;;;;;;;;;;4998765;28;20357;-71
2021/11/20 13:32:08;;;;;;;75.68;38.83;;;;;;;;;;4990107;28;20722;-71
2021/11/20 13:34:35;;;;;;;72.70;37.88;;;;;;;;;;5005713;28;20522;-71
2021/11/20 13:37:01;;;;;;;79.18;38.25;;;;;;;;;;5007172;28;20773;-71
2021/11/20 13:39:27;;;;;;;72.72;38.88;;;;;;;;;;5001739;28;20188;-72
2021/11/20 13:41:54;;;;;;;76.90;38.88;;;;;;;;;;4997342;28;20195;-72
2021/11/20 13:44:20;;;;;;;81.50;39.78;;;;;;;;;;5001960;28;20263;-71
2021/11/20 13:46:51;;;;;;;81.47;39.08;;;;;;;;;;4998749;28;20281;-71
2021/11/20 13:49:16;;;;;;;80.72;38.88;;;;;;;;;;4991864;28;20193;-72
2021/11/20 13:51:42;;;;;;;86.35;40.90;;;;;;;;;;4997408;28;20197;-71
2021/11/20 13:54:10;;;;;;;87.45;40.95;;;;;;;;;;4992649;28;20205;-71
2021/11/20 13:56:40;;;;;;;78.47;38.67;;;;;;;;;;5004916;28;20206;-71
2021/11/20 13:59:09;;;;;;;82.75;40.22;;;;;;;;;;5001253;28;20614;-72
2021/11/20 14:01:42;;;;;;;86.47;40.25;;;;;;;;;;5006627;28;20609;-71
2021/11/20 14:04:08;;;;;;;91.10;42.15;;;;;;;;;;4994876;28;20186;-71
2021/11/20 14:06:33;;;;;;;88.05;41.85;;;;;;;;;;5007925;28;20565;-71
2021/11/20 14:09:15;;;;;;;93.32;43.60;;;;;;;;;;4992405;28;20194;-71
2021/11/20 14:11:50;;;;;;;89.65;41.67;;;;;;;;;;5004710;28;20255;-72
2021/11/20 14:14:22;;;;;;;91.53;41.85;;;;;;;;;;4990359;28;20661;-72
2021/11/20 14:16:49;;;;;;;91.38;40.97;;;;;;;;;;4999590;28;20186;-71
2021/11/20 14:19:27;;;;;;;92.85;40.33;;;;;;;;;;4991875;28;20570;-71
2021/11/20 14:21:59;;;;;;;88.78;39.70;;;;;;;;;;4995994;28;20653;-71
2021/11/20 14:24:25;;;;;;;90.85;39.22;;;;;;;;;;5006904;28;20483;-70
2021/11/20 14:26:54;;;;;;;89.13;40.53;;;;;;;;;;4994746;28;20195;-72
2021/11/20 14:29:38;;;;;;;90.13;40.15;;;;;;;;;;4999678;28;20236;-71
2021/11/20 14:32:08;;;;;;;91.45;40.13;;;;;;;;;;5004514;28;20689;-70
2021/11/20 14:34:45;;;;;;;93.28;41.15;;;;;;;;;;4992403;28;20638;-71
2021/11/20 14:37:22;;;;;;;88.65;40.40;;;;;;;;;;5009867;28;20194;-70
2021/11/20 14:39:49;;;;;;;88.90;39.70;;;;;;;;;;5014223;28;20698;-70
2021/11/20 14:42:15;;;;;;;91.20;42.00;;;;;;;;;;4994363;28;20191;-71
2021/11/20 14:44:41;;;;;;;89.72;40.33;;;;;;;;;;5003857;28;20229;-70
2021/11/20 14:47:13;;;;;;;87.90;40.47;;;;;;;;;;5000867;28;20191;-71